Norfork, Arkansas
Current Conditions -  °F | °C
As of 11:53 PM on Tuesday 21 Oct 2014 (Local Time) from KBPK Reporting Station
Clear Clear  
Wind Chill: 56°   Ceiling: Unl
Heat Index: 56°   Visibility: 10mi
Dew Point: 47°   Wind: 3mph
Humidity: 72%   Direction: 60°ENE
Pressure: 30.13"   Gusts: NA
Location:  36.21°N, 92.28°W
Report Text: KBPK 220453Z AUTO 06003KT 10SM CLR 13/08 A3013 RMK AO2 SLP200 T01330083
Loading
Personal Weather Stations






























Interactive Weather Map
Tropical Storm Tracking
New forecast layout! Learn more

10-Day Weather Forecast

Advertisements
Track Severe Weather on mobile